sensor_id;sensor_type;location;lat;lon;timestamp;P1;durP1;ratioP1;P2;durP2;ratioP2
16979;SDS011;42288;52.182;21.156;2022-08-03T00:00:37;9.70;;;6.03;;
16979;SDS011;42288;52.182;21.156;2022-08-03T00:03:04;10.47;;;7.03;;
16979;SDS011;42288;52.182;21.156;2022-08-03T00:05:30;9.90;;;6.30;;
16979;SDS011;42288;52.182;21.156;2022-08-03T00:07:57;14.83;;;7.50;;
16979;SDS011;42288;52.182;21.156;2022-08-03T00:10:23;7.93;;;6.50;;
16979;SDS011;42288;52.182;21.156;2022-08-03T00:12:49;9.13;;;6.53;;
16979;SDS011;42288;52.182;21.156;2022-08-03T00:15:15;9.57;;;7.00;;
16979;SDS011;42288;52.182;21.156;2022-08-03T00:17:40;9.23;;;6.57;;
16979;SDS011;42288;52.182;21.156;2022-08-03T00:20:06;13.00;;;7.27;;
16979;SDS011;42288;52.182;21.156;2022-08-03T00:22:33;8.73;;;6.70;;
16979;SDS011;42288;52.182;21.156;2022-08-03T00:24:59;11.90;;;6.40;;
16979;SDS011;42288;52.182;21.156;2022-08-03T00:27:24;10.23;;;5.90;;
16979;SDS011;42288;52.182;21.156;2022-08-03T00:29:50;9.00;;;6.10;;
16979;SDS011;42288;52.182;21.156;2022-08-03T00:32:16;7.50;;;6.10;;
16979;SDS011;42288;52.182;21.156;2022-08-03T00:34:41;10.57;;;6.17;;
16979;SDS011;42288;52.182;21.156;2022-08-03T00:37:07;11.27;;;6.37;;
16979;SDS011;42288;52.182;21.156;2022-08-03T00:39:32;11.73;;;6.57;;
16979;SDS011;42288;52.182;21.156;2022-08-03T00:42:00;11.67;;;6.10;;
16979;SDS011;42288;52.182;21.156;2022-08-03T00:44:27;8.43;;;6.03;;
16979;SDS011;42288;52.182;21.156;2022-08-03T00:46:53;8.90;;;6.20;;
16979;SDS011;42288;52.182;21.156;2022-08-03T00:49:18;7.33;;;5.77;;
16979;SDS011;42288;52.182;21.156;2022-08-03T00:51:44;9.60;;;6.20;;
16979;SDS011;42288;52.182;21.156;2022-08-03T00:54:10;7.90;;;6.20;;
16979;SDS011;42288;52.182;21.156;2022-08-03T00:56:36;9.70;;;6.17;;
16979;SDS011;42288;52.182;21.156;2022-08-03T00:59:02;10.63;;;5.90;;
16979;SDS011;42288;52.182;21.156;2022-08-03T01:01:28;9.30;;;6.30;;
16979;SDS011;42288;52.182;21.156;2022-08-03T01:03:54;8.43;;;5.87;;
16979;SDS011;42288;52.182;21.156;2022-08-03T01:06:24;11.40;;;5.80;;
16979;SDS011;42288;52.182;21.156;2022-08-03T01:09:01;9.07;;;5.97;;
16979;SDS011;42288;52.182;21.156;2022-08-03T01:11:49;9.43;;;6.87;;
16979;SDS011;42288;52.182;21.156;2022-08-03T01:14:26;8.17;;;5.80;;
16979;SDS011;42288;52.182;21.156;2022-08-03T01:17:23;9.33;;;6.00;;
16979;SDS011;42288;52.182;21.156;2022-08-03T01:20:04;9.73;;;5.90;;
16979;SDS011;42288;52.182;21.156;2022-08-03T01:27:57;7.67;;;5.57;;
16979;SDS011;42288;52.182;21.156;2022-08-03T01:30:39;11.13;;;5.87;;
16979;SDS011;42288;52.182;21.156;2022-08-03T01:33:10;8.20;;;5.57;;
16979;SDS011;42288;52.182;21.156;2022-08-03T01:35:58;7.53;;;5.53;;
16979;SDS011;42288;52.182;21.156;2022-08-03T01:38:38;7.17;;;5.77;;
16979;SDS011;42288;52.182;21.156;2022-08-03T01:41:09;8.43;;;5.57;;
16979;SDS011;42288;52.182;21.156;2022-08-03T01:43:38;7.40;;;5.87;;
16979;SDS011;42288;52.182;21.156;2022-08-03T01:46:06;15.57;;;6.27;;
16979;SDS011;42288;52.182;21.156;2022-08-03T01:48:35;8.37;;;6.20;;
16979;SDS011;42288;52.182;21.156;2022-08-03T01:51:03;10.47;;;5.50;;
16979;SDS011;42288;52.182;21.156;2022-08-03T01:53:32;8.50;;;6.13;;
16979;SDS011;42288;52.182;21.156;2022-08-03T01:55:58;7.47;;;5.67;;
16979;SDS011;42288;52.182;21.156;2022-08-03T01:58:26;7.70;;;5.97;;
16979;SDS011;42288;52.182;21.156;2022-08-03T02:00:53;6.77;;;5.37;;
16979;SDS011;42288;52.182;21.156;2022-08-03T02:03:23;8.47;;;6.30;;
16979;SDS011;42288;52.182;21.156;2022-08-03T02:05:49;12.23;;;5.80;;
16979;SDS011;42288;52.182;21.156;2022-08-03T02:08:17;9.97;;;5.27;;
16979;SDS011;42288;52.182;21.156;2022-08-03T02:10:43;6.67;;;5.30;;
16979;SDS011;42288;52.182;21.156;2022-08-03T02:13:10;9.27;;;5.93;;
16979;SDS011;42288;52.182;21.156;2022-08-03T02:15:38;12.47;;;6.13;;
16979;SDS011;42288;52.182;21.156;2022-08-03T02:18:06;9.53;;;5.60;;
16979;SDS011;42288;52.182;21.156;2022-08-03T02:20:34;10.33;;;5.93;;
16979;SDS011;42288;52.182;21.156;2022-08-03T02:23:03;15.67;;;5.90;;
16979;SDS011;42288;52.182;21.156;2022-08-03T02:25:30;21.47;;;6.20;;
16979;SDS011;42288;52.182;21.156;2022-08-03T02:28:00;17.33;;;5.93;;
16979;SDS011;42288;52.182;21.156;2022-08-03T02:30:36;12.43;;;5.97;;
16979;SDS011;42288;52.182;21.156;2022-08-03T02:33:04;15.47;;;6.37;;
16979;SDS011;42288;52.182;21.156;2022-08-03T02:35:34;12.00;;;5.63;;
16979;SDS011;42288;52.182;21.156;2022-08-03T02:38:01;13.50;;;6.17;;
16979;SDS011;42288;52.182;21.156;2022-08-03T02:40:29;9.33;;;5.37;;
16979;SDS011;42288;52.182;21.156;2022-08-03T02:42:59;12.20;;;6.33;;
16979;SDS011;42288;52.182;21.156;2022-08-03T02:45:29;11.80;;;5.73;;
16979;SDS011;42288;52.182;21.156;2022-08-03T02:47:59;14.03;;;5.90;;
16979;SDS011;42288;52.182;21.156;2022-08-03T02:50:28;9.73;;;6.00;;
16979;SDS011;42288;52.182;21.156;2022-08-03T02:52:54;8.63;;;5.77;;
16979;SDS011;42288;52.182;21.156;2022-08-03T02:55:22;8.60;;;5.50;;
16979;SDS011;42288;52.182;21.156;2022-08-03T02:57:49;7.30;;;5.53;;
16979;SDS011;42288;52.182;21.156;2022-08-03T03:00:16;15.77;;;6.37;;
16979;SDS011;42288;52.182;21.156;2022-08-03T03:02:42;9.50;;;5.43;;
16979;SDS011;42288;52.182;21.156;2022-08-03T03:05:09;8.80;;;5.63;;
16979;SDS011;42288;52.182;21.156;2022-08-03T03:07:35;9.33;;;4.90;;
16979;SDS011;42288;52.182;21.156;2022-08-03T03:10:05;6.80;;;5.40;;
16979;SDS011;42288;52.182;21.156;2022-08-03T03:12:32;9.80;;;6.13;;
16979;SDS011;42288;52.182;21.156;2022-08-03T03:15:00;7.97;;;5.80;;
16979;SDS011;42288;52.182;21.156;2022-08-03T03:17:27;10.23;;;6.13;;
16979;SDS011;42288;52.182;21.156;2022-08-03T03:19:53;7.60;;;6.17;;
16979;SDS011;42288;52.182;21.156;2022-08-03T03:22:20;7.07;;;5.10;;
16979;SDS011;42288;52.182;21.156;2022-08-03T03:24:47;9.40;;;6.43;;
16979;SDS011;42288;52.182;21.156;2022-08-03T03:27:15;10.17;;;5.53;;
16979;SDS011;42288;52.182;21.156;2022-08-03T03:29:41;9.33;;;5.13;;
16979;SDS011;42288;52.182;21.156;2022-08-03T03:32:07;11.07;;;6.17;;
16979;SDS011;42288;52.182;21.156;2022-08-03T03:34:33;8.27;;;6.10;;
16979;SDS011;42288;52.182;21.156;2022-08-03T03:37:00;8.13;;;5.70;;
16979;SDS011;42288;52.182;21.156;2022-08-03T03:39:25;8.17;;;6.00;;
16979;SDS011;42288;52.182;21.156;2022-08-03T03:41:51;8.37;;;5.67;;
16979;SDS011;42288;52.182;21.156;2022-08-03T03:44:17;9.97;;;5.70;;
16979;SDS011;42288;52.182;21.156;2022-08-03T03:46:42;8.60;;;6.40;;
16979;SDS011;42288;52.182;21.156;2022-08-03T03:49:08;8.50;;;6.20;;
16979;SDS011;42288;52.182;21.156;2022-08-03T03:51:34;9.43;;;6.03;;
16979;SDS011;42288;52.182;21.156;2022-08-03T03:54:01;9.07;;;5.83;;
16979;SDS011;42288;52.182;21.156;2022-08-03T03:56:30;7.87;;;5.90;;
16979;SDS011;42288;52.182;21.156;2022-08-03T03:58:56;9.97;;;6.77;;
16979;SDS011;42288;52.182;21.156;2022-08-03T04:01:22;10.50;;;7.20;;
16979;SDS011;42288;52.182;21.156;2022-08-03T04:03:48;12.63;;;9.80;;
16979;SDS011;42288;52.182;21.156;2022-08-03T04:06:13;13.63;;;10.27;;
16979;SDS011;42288;52.182;21.156;2022-08-03T04:08:58;14.53;;;10.07;;
16979;SDS011;42288;52.182;21.156;2022-08-03T04:11:26;10.57;;;8.70;;
16979;SDS011;42288;52.182;21.156;2022-08-03T04:14:13;11.70;;;7.90;;
16979;SDS011;42288;52.182;21.156;2022-08-03T04:16:52;12.43;;;9.40;;
16979;SDS011;42288;52.182;21.156;2022-08-03T04:19:33;13.57;;;9.53;;
16979;SDS011;42288;52.182;21.156;2022-08-03T04:22:05;16.80;;;10.30;;
16979;SDS011;42288;52.182;21.156;2022-08-03T04:24:37;12.07;;;9.70;;
16979;SDS011;42288;52.182;21.156;2022-08-03T04:27:14;16.53;;;12.30;;
16979;SDS011;42288;52.182;21.156;2022-08-03T04:29:47;19.70;;;13.20;;
16979;SDS011;42288;52.182;21.156;2022-08-03T04:32:15;15.47;;;11.57;;
16979;SDS011;42288;52.182;21.156;2022-08-03T04:34:41;14.90;;;11.80;;
16979;SDS011;42288;52.182;21.156;2022-08-03T04:37:13;19.47;;;12.70;;
16979;SDS011;42288;52.182;21.156;2022-08-03T04:39:46;20.53;;;15.23;;
16979;SDS011;42288;52.182;21.156;2022-08-03T04:42:13;18.47;;;13.63;;
16979;SDS011;42288;52.182;21.156;2022-08-03T04:44:40;19.80;;;15.37;;
16979;SDS011;42288;52.182;21.156;2022-08-03T04:47:08;21.77;;;15.90;;
16979;SDS011;42288;52.182;21.156;2022-08-03T04:49:34;17.93;;;15.30;;
16979;SDS011;42288;52.182;21.156;2022-08-03T04:52:01;19.73;;;15.80;;
16979;SDS011;42288;52.182;21.156;2022-08-03T04:54:27;23.50;;;15.40;;
16979;SDS011;42288;52.182;21.156;2022-08-03T04:56:53;24.17;;;15.37;;
16979;SDS011;42288;52.182;21.156;2022-08-03T04:59:18;21.67;;;17.53;;
16979;SDS011;42288;52.182;21.156;2022-08-03T05:01:44;24.13;;;16.87;;
16979;SDS011;42288;52.182;21.156;2022-08-03T05:04:09;22.80;;;16.27;;
16979;SDS011;42288;52.182;21.156;2022-08-03T05:06:36;19.37;;;14.83;;
16979;SDS011;42288;52.182;21.156;2022-08-03T05:09:02;24.77;;;15.23;;
16979;SDS011;42288;52.182;21.156;2022-08-03T05:11:28;21.57;;;15.47;;
16979;SDS011;42288;52.182;21.156;2022-08-03T05:13:53;23.93;;;14.57;;
16979;SDS011;42288;52.182;21.156;2022-08-03T05:16:19;19.70;;;13.43;;
16979;SDS011;42288;52.182;21.156;2022-08-03T05:18:45;20.13;;;14.70;;
16979;SDS011;42288;52.182;21.156;2022-08-03T05:21:10;21.27;;;13.73;;
16979;SDS011;42288;52.182;21.156;2022-08-03T05:23:38;19.67;;;13.57;;
16979;SDS011;42288;52.182;21.156;2022-08-03T05:26:04;17.43;;;13.77;;
16979;SDS011;42288;52.182;21.156;2022-08-03T05:28:29;18.17;;;13.20;;
16979;SDS011;42288;52.182;21.156;2022-08-03T05:30:55;17.50;;;12.50;;
16979;SDS011;42288;52.182;21.156;2022-08-03T05:33:21;17.17;;;11.40;;
16979;SDS011;42288;52.182;21.156;2022-08-03T05:35:47;16.20;;;11.87;;
16979;SDS011;42288;52.182;21.156;2022-08-03T05:38:12;19.03;;;11.13;;
16979;SDS011;42288;52.182;21.156;2022-08-03T05:40:38;13.77;;;10.57;;
16979;SDS011;42288;52.182;21.156;2022-08-03T05:43:03;16.57;;;10.77;;
16979;SDS011;42288;52.182;21.156;2022-08-03T05:45:29;13.20;;;10.57;;
16979;SDS011;42288;52.182;21.156;2022-08-03T05:47:54;15.57;;;11.20;;
16979;SDS011;42288;52.182;21.156;2022-08-03T05:50:20;17.23;;;11.53;;
16979;SDS011;42288;52.182;21.156;2022-08-03T05:52:45;14.90;;;12.13;;
16979;SDS011;42288;52.182;21.156;2022-08-03T05:55:11;14.13;;;11.63;;
16979;SDS011;42288;52.182;21.156;2022-08-03T05:57:38;16.07;;;11.60;;
16979;SDS011;42288;52.182;21.156;2022-08-03T06:00:05;20.43;;;12.43;;
16979;SDS011;42288;52.182;21.156;2022-08-03T06:02:32;17.17;;;12.57;;
16979;SDS011;42288;52.182;21.156;2022-08-03T06:04:58;17.90;;;12.43;;
16979;SDS011;42288;52.182;21.156;2022-08-03T06:07:23;18.97;;;11.70;;
16979;SDS011;42288;52.182;21.156;2022-08-03T06:09:49;18.47;;;12.00;;
16979;SDS011;42288;52.182;21.156;2022-08-03T06:12:15;18.87;;;13.63;;
16979;SDS011;42288;52.182;21.156;2022-08-03T06:14:40;18.03;;;12.33;;
16979;SDS011;42288;52.182;21.156;2022-08-03T06:17:06;16.03;;;12.40;;
16979;SDS011;42288;52.182;21.156;2022-08-03T06:19:32;16.33;;;11.50;;
16979;SDS011;42288;52.182;21.156;2022-08-03T06:21:57;17.27;;;12.23;;
16979;SDS011;42288;52.182;21.156;2022-08-03T06:24:23;14.97;;;11.90;;
16979;SDS011;42288;52.182;21.156;2022-08-03T06:26:49;17.57;;;11.33;;
16979;SDS011;42288;52.182;21.156;2022-08-03T06:29:14;18.57;;;12.27;;
16979;SDS011;42288;52.182;21.156;2022-08-03T06:31:40;18.50;;;13.73;;
16979;SDS011;42288;52.182;21.156;2022-08-03T06:34:05;17.53;;;13.67;;
16979;SDS011;42288;52.182;21.156;2022-08-03T06:36:31;17.30;;;12.90;;
16979;SDS011;42288;52.182;21.156;2022-08-03T06:38:57;18.40;;;13.37;;
16979;SDS011;42288;52.182;21.156;2022-08-03T06:41:23;20.87;;;14.30;;
16979;SDS011;42288;52.182;21.156;2022-08-03T06:43:49;19.97;;;14.90;;
16979;SDS011;42288;52.182;21.156;2022-08-03T06:46:15;15.40;;;12.33;;
16979;SDS011;42288;52.182;21.156;2022-08-03T06:48:41;19.97;;;15.27;;
16979;SDS011;42288;52.182;21.156;2022-08-03T06:51:07;21.60;;;14.67;;
16979;SDS011;42288;52.182;21.156;2022-08-03T06:53:33;20.97;;;14.47;;
16979;SDS011;42288;52.182;21.156;2022-08-03T06:55:58;15.23;;;12.40;;
16979;SDS011;42288;52.182;21.156;2022-08-03T06:58:24;19.27;;;13.70;;
16979;SDS011;42288;52.182;21.156;2022-08-03T07:00:49;24.30;;;14.60;;
16979;SDS011;42288;52.182;21.156;2022-08-03T07:03:15;20.00;;;13.70;;
16979;SDS011;42288;52.182;21.156;2022-08-03T07:05:41;18.73;;;13.87;;
16979;SDS011;42288;52.182;21.156;2022-08-03T07:08:07;16.40;;;13.03;;
16979;SDS011;42288;52.182;21.156;2022-08-03T07:10:33;19.33;;;13.83;;
16979;SDS011;42288;52.182;21.156;2022-08-03T07:12:59;21.97;;;13.70;;
16979;SDS011;42288;52.182;21.156;2022-08-03T07:15:24;21.87;;;13.57;;
16979;SDS011;42288;52.182;21.156;2022-08-03T07:17:50;22.03;;;13.67;;
16979;SDS011;42288;52.182;21.156;2022-08-03T07:20:15;20.13;;;14.10;;
16979;SDS011;42288;52.182;21.156;2022-08-03T07:22:42;23.33;;;12.97;;
16979;SDS011;42288;52.182;21.156;2022-08-03T07:25:08;19.20;;;13.53;;
16979;SDS011;42288;52.182;21.156;2022-08-03T07:27:34;18.90;;;13.33;;
16979;SDS011;42288;52.182;21.156;2022-08-03T07:30:00;19.13;;;12.70;;
16979;SDS011;42288;52.182;21.156;2022-08-03T07:32:29;20.47;;;14.13;;
16979;SDS011;42288;52.182;21.156;2022-08-03T07:34:55;21.83;;;14.23;;
16979;SDS011;42288;52.182;21.156;2022-08-03T07:37:20;18.63;;;14.80;;
16979;SDS011;42288;52.182;21.156;2022-08-03T07:39:46;20.10;;;14.07;;
16979;SDS011;42288;52.182;21.156;2022-08-03T07:42:12;19.43;;;14.40;;
16979;SDS011;42288;52.182;21.156;2022-08-03T07:44:37;18.13;;;14.10;;
16979;SDS011;42288;52.182;21.156;2022-08-03T07:47:03;19.50;;;14.70;;
16979;SDS011;42288;52.182;21.156;2022-08-03T07:49:29;15.93;;;12.10;;
16979;SDS011;42288;52.182;21.156;2022-08-03T07:51:55;18.07;;;13.50;;
16979;SDS011;42288;52.182;21.156;2022-08-03T07:54:39;18.10;;;12.47;;
16979;SDS011;42288;52.182;21.156;2022-08-03T07:57:04;18.70;;;12.33;;
16979;SDS011;42288;52.182;21.156;2022-08-03T07:59:30;20.30;;;14.03;;
16979;SDS011;42288;52.182;21.156;2022-08-03T08:01:56;20.60;;;14.37;;
16979;SDS011;42288;52.182;21.156;2022-08-03T08:04:22;17.80;;;14.03;;
16979;SDS011;42288;52.182;21.156;2022-08-03T08:06:47;19.97;;;14.67;;
16979;SDS011;42288;52.182;21.156;2022-08-03T08:09:13;16.97;;;13.13;;
16979;SDS011;42288;52.182;21.156;2022-08-03T08:11:39;16.63;;;13.17;;
16979;SDS011;42288;52.182;21.156;2022-08-03T08:14:04;20.20;;;13.47;;
16979;SDS011;42288;52.182;21.156;2022-08-03T08:16:31;16.10;;;11.10;;
16979;SDS011;42288;52.182;21.156;2022-08-03T08:18:56;16.47;;;11.67;;
16979;SDS011;42288;52.182;21.156;2022-08-03T08:21:22;19.80;;;13.77;;
16979;SDS011;42288;52.182;21.156;2022-08-03T08:23:48;19.00;;;13.53;;
16979;SDS011;42288;52.182;21.156;2022-08-03T08:26:13;23.77;;;15.17;;
16979;SDS011;42288;52.182;21.156;2022-08-03T08:28:39;20.77;;;13.18;;
16979;SDS011;42288;52.182;21.156;2022-08-03T08:31:04;20.77;;;13.40;;
16979;SDS011;42288;52.182;21.156;2022-08-03T08:33:30;21.40;;;13.97;;
16979;SDS011;42288;52.182;21.156;2022-08-03T08:35:58;17.10;;;12.55;;
16979;SDS011;42288;52.182;21.156;2022-08-03T08:38:24;15.47;;;11.43;;
16979;SDS011;42288;52.182;21.156;2022-08-03T08:40:50;17.47;;;10.97;;
16979;SDS011;42288;52.182;21.156;2022-08-03T08:43:18;16.20;;;10.73;;
16979;SDS011;42288;52.182;21.156;2022-08-03T08:45:44;13.73;;;9.13;;
16979;SDS011;42288;52.182;21.156;2022-08-03T08:48:13;13.80;;;9.63;;
16979;SDS011;42288;52.182;21.156;2022-08-03T08:50:39;20.27;;;9.48;;
16979;SDS011;42288;52.182;21.156;2022-08-03T08:53:05;9.93;;;7.27;;
16979;SDS011;42288;52.182;21.156;2022-08-03T08:55:32;12.18;;;7.63;;
16979;SDS011;42288;52.182;21.156;2022-08-03T08:58:04;13.18;;;8.63;;
16979;SDS011;42288;52.182;21.156;2022-08-03T09:00:30;9.50;;;6.53;;
16979;SDS011;42288;52.182;21.156;2022-08-03T09:02:56;7.50;;;6.43;;
16979;SDS011;42288;52.182;21.156;2022-08-03T09:05:22;9.15;;;6.93;;
16979;SDS011;42288;52.182;21.156;2022-08-03T09:07:48;9.38;;;6.80;;
16979;SDS011;42288;52.182;21.156;2022-08-03T09:10:17;7.43;;;6.22;;
16979;SDS011;42288;52.182;21.156;2022-08-03T09:12:46;10.18;;;6.68;;
16979;SDS011;42288;52.182;21.156;2022-08-03T09:17:56;8.70;;;5.15;;
16979;SDS011;42288;52.182;21.156;2022-08-03T09:20:25;6.82;;;4.93;;
16979;SDS011;42288;52.182;21.156;2022-08-03T09:22:53;7.90;;;4.53;;
16979;SDS011;42288;52.182;21.156;2022-08-03T09:25:24;6.90;;;4.67;;
16979;SDS011;42288;52.182;21.156;2022-08-03T09:27:53;8.10;;;4.82;;
16979;SDS011;42288;52.182;21.156;2022-08-03T09:30:19;5.53;;;4.75;;
16979;SDS011;42288;52.182;21.156;2022-08-03T09:32:45;7.30;;;4.60;;
16979;SDS011;42288;52.182;21.156;2022-08-03T09:35:14;4.80;;;4.30;;
16979;SDS011;42288;52.182;21.156;2022-08-03T09:37:39;5.45;;;4.03;;
16979;SDS011;42288;52.182;21.156;2022-08-03T09:40:05;6.00;;;4.68;;
16979;SDS011;42288;52.182;21.156;2022-08-03T09:42:31;8.75;;;4.63;;
16979;SDS011;42288;52.182;21.156;2022-08-03T09:45:02;8.82;;;4.10;;
16979;SDS011;42288;52.182;21.156;2022-08-03T09:47:30;5.07;;;4.22;;
16979;SDS011;42288;52.182;21.156;2022-08-03T09:50:01;7.03;;;4.20;;
16979;SDS011;42288;52.182;21.156;2022-08-03T09:52:32;10.60;;;4.90;;
16979;SDS011;42288;52.182;21.156;2022-08-03T09:55:10;13.10;;;4.72;;
16979;SDS011;42288;52.182;21.156;2022-08-03T09:57:37;9.38;;;4.50;;
16979;SDS011;42288;52.182;21.156;2022-08-03T10:00:11;6.35;;;4.70;;
16979;SDS011;42288;52.182;21.156;2022-08-03T10:02:39;6.63;;;4.60;;
16979;SDS011;42288;52.182;21.156;2022-08-03T10:05:05;5.65;;;4.43;;
16979;SDS011;42288;52.182;21.156;2022-08-03T10:07:46;8.88;;;4.88;;
16979;SDS011;42288;52.182;21.156;2022-08-03T10:10:13;4.63;;;4.00;;
16979;SDS011;42288;52.182;21.156;2022-08-03T10:12:40;6.57;;;4.30;;
16979;SDS011;42288;52.182;21.156;2022-08-03T10:15:07;7.63;;;4.38;;
16979;SDS011;42288;52.182;21.156;2022-08-03T10:17:34;5.25;;;3.80;;
16979;SDS011;42288;52.182;21.156;2022-08-03T10:20:00;9.18;;;3.80;;
16979;SDS011;42288;52.182;21.156;2022-08-03T10:22:27;5.65;;;4.25;;
16979;SDS011;42288;52.182;21.156;2022-08-03T10:25:07;6.90;;;4.15;;
16979;SDS011;42288;52.182;21.156;2022-08-03T10:27:36;6.68;;;3.85;;
16979;SDS011;42288;52.182;21.156;2022-08-03T10:30:08;5.75;;;3.58;;
16979;SDS011;42288;52.182;21.156;2022-08-03T10:35:19;6.18;;;4.40;;
16979;SDS011;42288;52.182;21.156;2022-08-03T10:37:58;6.50;;;4.00;;
16979;SDS011;42288;52.182;21.156;2022-08-03T10:40:28;10.80;;;4.30;;
16979;SDS011;42288;52.182;21.156;2022-08-03T10:42:57;6.97;;;4.05;;
16979;SDS011;42288;52.182;21.156;2022-08-03T10:45:27;5.55;;;4.22;;
16979;SDS011;42288;52.182;21.156;2022-08-03T10:47:54;4.35;;;3.80;;
16979;SDS011;42288;52.182;21.156;2022-08-03T10:50:22;6.60;;;4.43;;
16979;SDS011;42288;52.182;21.156;2022-08-03T10:52:53;7.60;;;3.95;;
16979;SDS011;42288;52.182;21.156;2022-08-03T10:55:33;8.40;;;4.60;;
16979;SDS011;42288;52.182;21.156;2022-08-03T11:01:09;6.25;;;4.38;;
16979;SDS011;42288;52.182;21.156;2022-08-03T11:06:20;4.45;;;3.75;;
16979;SDS011;42288;52.182;21.156;2022-08-03T11:08:49;7.07;;;4.10;;
16979;SDS011;42288;52.182;21.156;2022-08-03T11:11:35;5.03;;;4.03;;
16979;SDS011;42288;52.182;21.156;2022-08-03T11:14:06;6.32;;;3.95;;
16979;SDS011;42288;52.182;21.156;2022-08-03T11:16:34;7.75;;;3.65;;
16979;SDS011;42288;52.182;21.156;2022-08-03T11:19:06;6.80;;;4.28;;
16979;SDS011;42288;52.182;21.156;2022-08-03T11:27:19;7.10;;;4.20;;
16979;SDS011;42288;52.182;21.156;2022-08-03T11:40:35;7.70;;;4.05;;
16979;SDS011;42288;52.182;21.156;2022-08-03T11:43:01;5.47;;;4.38;;
16979;SDS011;42288;52.182;21.156;2022-08-03T11:45:28;5.93;;;3.90;;
16979;SDS011;42288;52.182;21.156;2022-08-03T11:47:55;6.22;;;3.97;;
16979;SDS011;42288;52.182;21.156;2022-08-03T11:50:22;8.00;;;4.30;;
16979;SDS011;42288;52.182;21.156;2022-08-03T11:52:48;5.40;;;3.75;;
16979;SDS011;42288;52.182;21.156;2022-08-03T11:55:15;8.93;;;4.20;;
16979;SDS011;42288;52.182;21.156;2022-08-03T11:57:44;5.38;;;4.30;;
16979;SDS011;42288;52.182;21.156;2022-08-03T12:00:27;6.22;;;3.88;;
16979;SDS011;42288;52.182;21.156;2022-08-03T12:08:04;6.68;;;4.07;;
16979;SDS011;42288;52.182;21.156;2022-08-03T12:10:30;6.22;;;3.90;;
16979;SDS011;42288;52.182;21.156;2022-08-03T12:12:58;5.40;;;4.35;;
16979;SDS011;42288;52.182;21.156;2022-08-03T12:15:25;8.32;;;3.95;;
16979;SDS011;42288;52.182;21.156;2022-08-03T12:17:56;7.55;;;4.18;;
16979;SDS011;42288;52.182;21.156;2022-08-03T12:20:25;8.25;;;3.80;;
16979;SDS011;42288;52.182;21.156;2022-08-03T12:22:52;6.65;;;4.30;;
16979;SDS011;42288;52.182;21.156;2022-08-03T12:25:22;6.65;;;3.85;;
16979;SDS011;42288;52.182;21.156;2022-08-03T12:27:50;5.60;;;4.10;;
16979;SDS011;42288;52.182;21.156;2022-08-03T12:30:17;6.53;;;4.43;;
16979;SDS011;42288;52.182;21.156;2022-08-03T12:32:43;4.38;;;3.97;;
16979;SDS011;42288;52.182;21.156;2022-08-03T12:35:09;5.88;;;4.40;;
16979;SDS011;42288;52.182;21.156;2022-08-03T12:37:46;4.80;;;3.85;;
16979;SDS011;42288;52.182;21.156;2022-08-03T12:40:12;8.80;;;3.90;;
16979;SDS011;42288;52.182;21.156;2022-08-03T12:42:40;5.32;;;3.70;;
16979;SDS011;42288;52.182;21.156;2022-08-03T12:45:21;4.47;;;3.75;;
16979;SDS011;42288;52.182;21.156;2022-08-03T12:47:53;4.35;;;3.78;;
16979;SDS011;42288;52.182;21.156;2022-08-03T12:50:24;5.22;;;4.18;;
16979;SDS011;42288;52.182;21.156;2022-08-03T12:52:56;5.93;;;4.28;;
16979;SDS011;42288;52.182;21.156;2022-08-03T12:55:23;5.95;;;4.30;;
16979;SDS011;42288;52.182;21.156;2022-08-03T12:57:51;6.00;;;4.50;;
16979;SDS011;42288;52.182;21.156;2022-08-03T13:00:17;6.65;;;4.15;;
16979;SDS011;42288;52.182;21.156;2022-08-03T13:02:43;5.32;;;3.92;;
16979;SDS011;42288;52.182;21.156;2022-08-03T13:05:12;8.35;;;4.55;;
16979;SDS011;42288;52.182;21.156;2022-08-03T13:07:40;6.00;;;4.28;;
16979;SDS011;42288;52.182;21.156;2022-08-03T13:10:06;6.22;;;4.20;;
16979;SDS011;42288;52.182;21.156;2022-08-03T13:12:44;6.43;;;4.47;;
16979;SDS011;42288;52.182;21.156;2022-08-03T13:15:13;7.97;;;4.25;;
16979;SDS011;42288;52.182;21.156;2022-08-03T13:17:39;7.70;;;4.13;;
16979;SDS011;42288;52.182;21.156;2022-08-03T13:20:05;5.63;;;4.25;;
16979;SDS011;42288;52.182;21.156;2022-08-03T13:22:32;6.85;;;4.10;;
16979;SDS011;42288;52.182;21.156;2022-08-03T13:24:57;6.70;;;4.07;;
16979;SDS011;42288;52.182;21.156;2022-08-03T13:27:25;9.07;;;3.97;;
16979;SDS011;42288;52.182;21.156;2022-08-03T13:29:51;4.65;;;4.20;;
16979;SDS011;42288;52.182;21.156;2022-08-03T13:32:17;9.57;;;4.07;;
16979;SDS011;42288;52.182;21.156;2022-08-03T13:34:43;5.20;;;3.80;;
16979;SDS011;42288;52.182;21.156;2022-08-03T13:37:09;6.68;;;4.38;;
16979;SDS011;42288;52.182;21.156;2022-08-03T13:39:36;4.70;;;4.20;;
16979;SDS011;42288;52.182;21.156;2022-08-03T13:42:02;7.47;;;4.35;;
16979;SDS011;42288;52.182;21.156;2022-08-03T13:44:29;6.20;;;4.22;;
16979;SDS011;42288;52.182;21.156;2022-08-03T13:46:55;4.57;;;3.95;;
16979;SDS011;42288;52.182;21.156;2022-08-03T13:49:21;5.45;;;3.83;;
16979;SDS011;42288;52.182;21.156;2022-08-03T13:51:47;4.47;;;4.05;;
16979;SDS011;42288;52.182;21.156;2022-08-03T13:54:12;5.93;;;3.80;;
16979;SDS011;42288;52.182;21.156;2022-08-03T13:56:38;4.93;;;3.85;;
16979;SDS011;42288;52.182;21.156;2022-08-03T13:59:03;4.57;;;3.78;;
16979;SDS011;42288;52.182;21.156;2022-08-03T14:01:30;4.50;;;3.63;;
16979;SDS011;42288;52.182;21.156;2022-08-03T14:03:55;4.75;;;3.58;;
16979;SDS011;42288;52.182;21.156;2022-08-03T14:06:22;7.25;;;3.75;;
16979;SDS011;42288;52.182;21.156;2022-08-03T14:08:49;4.55;;;3.85;;
16979;SDS011;42288;52.182;21.156;2022-08-03T14:11:15;5.75;;;4.65;;
16979;SDS011;42288;52.182;21.156;2022-08-03T14:13:41;5.32;;;3.85;;
16979;SDS011;42288;52.182;21.156;2022-08-03T14:16:07;5.03;;;3.55;;
16979;SDS011;42288;52.182;21.156;2022-08-03T14:18:33;5.95;;;3.78;;
16979;SDS011;42288;52.182;21.156;2022-08-03T14:21:00;6.18;;;3.95;;
16979;SDS011;42288;52.182;21.156;2022-08-03T14:23:26;8.05;;;3.40;;
16979;SDS011;42288;52.182;21.156;2022-08-03T14:25:52;7.18;;;4.38;;
16979;SDS011;42288;52.182;21.156;2022-08-03T14:28:19;6.38;;;3.70;;
16979;SDS011;42288;52.182;21.156;2022-08-03T14:30:51;9.10;;;3.83;;
16979;SDS011;42288;52.182;21.156;2022-08-03T14:33:18;5.05;;;4.40;;
16979;SDS011;42288;52.182;21.156;2022-08-03T14:35:44;5.82;;;4.10;;
16979;SDS011;42288;52.182;21.156;2022-08-03T14:38:11;7.72;;;4.18;;
16979;SDS011;42288;52.182;21.156;2022-08-03T14:40:36;6.72;;;4.18;;
16979;SDS011;42288;52.182;21.156;2022-08-03T14:43:02;5.40;;;3.95;;
16979;SDS011;42288;52.182;21.156;2022-08-03T14:45:28;5.45;;;3.97;;
16979;SDS011;42288;52.182;21.156;2022-08-03T14:47:53;6.43;;;4.25;;
16979;SDS011;42288;52.182;21.156;2022-08-03T14:50:19;4.63;;;3.80;;
16979;SDS011;42288;52.182;21.156;2022-08-03T14:52:45;5.35;;;3.95;;
16979;SDS011;42288;52.182;21.156;2022-08-03T14:55:10;5.43;;;3.90;;
16979;SDS011;42288;52.182;21.156;2022-08-03T14:57:36;4.93;;;4.05;;
16979;SDS011;42288;52.182;21.156;2022-08-03T15:00:02;5.57;;;4.18;;
16979;SDS011;42288;52.182;21.156;2022-08-03T15:02:28;6.47;;;4.10;;
16979;SDS011;42288;52.182;21.156;2022-08-03T15:04:54;5.82;;;4.32;;
16979;SDS011;42288;52.182;21.156;2022-08-03T15:07:20;5.65;;;4.35;;